Time;durP1;ratioP1;P1;durP2;ratioP2;P2;SDS_P1;SDS_P2;PMS_P1;PMS_P2;Temp;Humidity;BMP_temperature;BMP_pressure;BME280_temperature;BME280_humidity;BME280_pressure;Samples;Min_cycle;Max_cycle;Signal;HPM_P1;HPM_P2
2023/08/11 00:01:16;;;;;;;10.43;1.70;;;41.90;36.90;;;;;;5044706;28;20053;-56
2023/08/11 00:03:46;;;;;;;8.93;1.73;;;41.90;36.90;;;;;;5044867;28;20062;-60
2023/08/11 00:06:13;;;;;;;6.43;1.50;;;41.90;37.00;;;;;;5045192;28;20046;-58
2023/08/11 00:08:40;;;;;;;10.70;1.60;;;41.70;37.10;;;;;;5045133;28;20524;-56
2023/08/11 00:11:06;;;;;;;10.77;1.70;;;41.80;37.10;;;;;;5044400;28;20047;-57
2023/08/11 00:13:33;;;;;;;6.55;1.45;;;41.60;37.10;;;;;;5044778;28;20049;-58
2023/08/11 00:16:03;;;;;;;5.55;1.70;;;41.60;37.40;;;;;;5045083;28;20055;-58
2023/08/11 00:18:29;;;;;;;6.60;1.52;;;41.50;37.70;;;;;;5044288;28;20160;-57
2023/08/11 00:20:56;;;;;;;8.93;1.90;;;41.40;37.70;;;;;;5043936;28;20057;-58
2023/08/11 00:23:24;;;;;;;8.82;1.80;;;41.30;37.80;;;;;;5043398;28;20101;-60
2023/08/11 00:25:50;;;;;;;9.98;1.80;;;41.20;37.70;;;;;;5044695;28;20060;-58
2023/08/11 00:28:16;;;;;;;5.93;1.13;;;41.10;38.20;;;;;;5043798;28;20050;-60
2023/08/11 00:30:43;;;;;;;12.75;1.90;;;41.10;38.20;;;;;;5046346;28;20043;-60
2023/08/11 00:33:10;;;;;;;9.48;1.45;;;41.10;38.40;;;;;;5047865;28;20528;-60
2023/08/11 00:35:37;;;;;;;13.93;1.92;;;41.10;38.50;;;;;;5048283;28;20111;-60
2023/08/11 00:38:04;;;;;;;13.52;1.88;;;41.00;38.70;;;;;;4974709;28;2136507;-60
2023/08/11 00:40:31;;;;;;;8.57;1.65;;;40.90;38.80;;;;;;5049493;28;20051;-59
2023/08/11 00:42:57;;;;;;;7.22;1.88;;;40.80;38.70;;;;;;5050102;28;20107;-59
2023/08/11 00:45:24;;;;;;;13.25;2.30;;;40.80;39.10;;;;;;5050162;28;20134;-59
2023/08/11 00:47:51;;;;;;;10.55;1.92;;;40.70;39.10;;;;;;5049451;28;20062;-56
2023/08/11 00:50:17;;;;;;;12.85;1.98;;;40.70;39.00;;;;;;5049537;28;20110;-59
2023/08/11 00:52:45;;;;;;;8.93;1.70;;;40.60;39.10;;;;;;5048320;28;20083;-56
2023/08/11 00:55:13;;;;;;;9.23;1.70;;;40.50;39.00;;;;;;5048144;28;20051;-60
2023/08/11 00:57:40;;;;;;;9.85;1.45;;;40.50;39.10;;;;;;5048394;28;20092;-60
2023/08/11 01:00:14;;;;;;;16.38;1.75;;;40.40;39.10;;;;;;5049275;28;20054;-60
2023/08/11 01:02:42;;;;;;;8.68;1.67;;;40.20;39.10;;;;;;5048871;28;20610;-57
2023/08/11 01:05:14;;;;;;;4.28;1.90;;;40.30;38.90;;;;;;5048997;28;20054;-60
2023/08/11 01:08:04;;;;;;;7.45;1.98;;;40.20;39.40;;;;;;5047585;28;20075;-60
2023/08/11 01:11:06;;;;;;;8.32;1.95;;;40.20;39.20;;;;;;5049151;28;20481;-58
2023/08/11 01:13:38;;;;;;;7.88;1.70;;;40.10;39.60;;;;;;5046974;28;20420;-58
2023/08/11 01:16:05;;;;;;;11.23;2.00;;;40.00;39.50;;;;;;5049322;28;20059;-60
2023/08/11 01:18:33;;;;;;;8.60;1.80;;;40.00;39.90;;;;;;5048004;28;20511;-57
2023/08/11 01:21:03;;;;;;;10.52;2.00;;;39.90;40.00;;;;;;5048112;28;20086;-59
2023/08/11 01:23:29;;;;;;;7.15;1.83;;;39.80;40.20;;;;;;5049679;28;20073;-60
2023/08/11 01:25:56;;;;;;;10.02;1.92;;;39.80;40.20;;;;;;5048763;28;20056;-57
2023/08/11 01:28:22;;;;;;;11.90;1.88;;;39.70;40.30;;;;;;5048627;28;20053;-60
2023/08/11 01:30:49;;;;;;;4.70;1.90;;;39.70;40.30;;;;;;5048512;28;20613;-57
2023/08/11 01:33:15;;;;;;;16.67;2.20;;;39.60;40.60;;;;;;5048158;28;20124;-56
2023/08/11 01:35:42;;;;;;;25.75;3.10;;;39.50;40.50;;;;;;5047157;28;20049;-58
2023/08/11 01:38:10;;;;;;;27.58;2.85;;;39.30;39.90;;;;;;5049611;28;20129;-60
2023/08/11 01:40:37;;;;;;;14.80;2.95;;;39.20;39.90;;;;;;5047980;28;20064;-56
2023/08/11 01:43:05;;;;;;;36.53;4.35;;;39.10;40.10;;;;;;5047134;28;20074;-59
2023/08/11 01:45:33;;;;;;;28.48;4.13;;;38.90;40.10;;;;;;5047323;28;20064;-58
2023/08/11 01:48:01;;;;;;;27.48;3.92;;;38.60;40.50;;;;;;5045751;28;20155;-61
2023/08/11 01:50:28;;;;;;;31.63;4.22;;;38.30;41.20;;;;;;5048112;28;20068;-59
2023/08/11 01:52:55;;;;;;;23.92;4.10;;;38.10;41.10;;;;;;5046371;28;20617;-55
2023/08/11 01:55:24;;;;;;;17.25;3.40;;;37.90;41.10;;;;;;5045291;28;20076;-58
2023/08/11 01:57:52;;;;;;;14.65;3.42;;;37.80;41.00;;;;;;5048021;28;20105;-56
2023/08/11 02:00:20;;;;;;;12.85;3.63;;;37.80;40.80;;;;;;5046085;28;20094;-58
2023/08/11 02:02:47;;;;;;;17.63;3.85;;;37.70;40.90;;;;;;5045185;28;20090;-60
2023/08/11 02:05:15;;;;;;;13.50;2.97;;;37.60;41.00;;;;;;5048413;28;20068;-55
2023/08/11 02:07:43;;;;;;;11.95;3.63;;;37.40;41.50;;;;;;5043689;28;20084;-56
2023/08/11 02:10:09;;;;;;;21.55;4.28;;;37.30;41.80;;;;;;5048278;28;20075;-55
2023/08/11 02:12:40;;;;;;;16.48;3.65;;;37.20;41.90;;;;;;5048037;28;20428;-56
2023/08/11 02:15:07;;;;;;;15.25;4.40;;;37.10;42.10;;;;;;5047263;28;20081;-54
2023/08/11 02:17:34;;;;;;;14.73;3.60;;;37.00;42.00;;;;;;5045638;28;20616;-55
2023/08/11 02:20:18;;;;;;;12.35;3.60;;;36.90;42.50;;;;;;5047622;28;20169;-58
2023/08/11 02:22:45;;;;;;;14.00;4.30;;;36.90;42.60;;;;;;5046993;28;20092;-55
2023/08/11 02:25:11;;;;;;;14.45;4.28;;;36.90;42.80;;;;;;5047364;28;20078;-58
2023/08/11 02:27:38;;;;;;;12.40;3.60;;;36.80;43.00;;;;;;5045453;28;20100;-56
2023/08/11 02:30:06;;;;;;;11.70;3.80;;;36.70;43.10;;;;;;5043440;28;20082;-56
2023/08/11 02:32:32;;;;;;;7.03;3.63;;;36.60;43.30;;;;;;5045067;28;20100;-57
2023/08/11 02:34:59;;;;;;;9.77;3.72;;;36.50;43.70;;;;;;5047377;28;20120;-57
2023/08/11 02:37:26;;;;;;;12.40;3.45;;;36.40;44.10;;;;;;5046679;28;20552;-58
2023/08/11 02:39:52;;;;;;;12.20;3.65;;;36.40;44.30;;;;;;5046958;28;20082;-56
2023/08/11 02:42:20;;;;;;;10.32;3.95;;;36.30;44.40;;;;;;5048823;28;20099;-61
2023/08/11 02:44:47;;;;;;;9.05;3.60;;;36.30;44.60;;;;;;5045718;28;20643;-55
2023/08/11 02:47:13;;;;;;;10.30;3.35;;;36.20;45.40;;;;;;5047454;28;20563;-55
2023/08/11 02:49:40;;;;;;;12.27;3.65;;;36.10;44.90;;;;;;5046866;28;21156;-54
2023/08/11 02:52:06;;;;;;;11.88;3.60;;;36.10;44.90;;;;;;5045949;28;20075;-55
2023/08/11 02:54:33;;;;;;;12.13;3.33;;;36.00;45.20;;;;;;5047842;28;20071;-54
2023/08/11 02:56:59;;;;;;;6.22;3.42;;;36.00;45.20;;;;;;5046613;28;20082;-56
2023/08/11 02:59:25;;;;;;;11.90;3.90;;;36.00;45.50;;;;;;5047858;28;21270;-58
2023/08/11 03:01:52;;;;;;;14.25;3.05;;;35.80;45.80;;;;;;5047298;28;20072;-56
2023/08/11 03:04:18;;;;;;;13.68;3.50;;;35.80;45.70;;;;;;5047341;28;20159;-56
2023/08/11 03:06:45;;;;;;;13.00;3.25;;;35.70;45.80;;;;;;5046452;28;20074;-55
2023/08/11 03:09:12;;;;;;;14.07;3.20;;;35.70;46.00;;;;;;5048077;28;20082;-56
2023/08/11 03:11:38;;;;;;;11.80;3.22;;;35.60;46.10;;;;;;5046341;28;20177;-54
2023/08/11 03:14:05;;;;;;;13.05;3.50;;;35.60;46.40;;;;;;5046997;28;20087;-55
2023/08/11 03:16:32;;;;;;;12.82;3.65;;;35.40;46.70;;;;;;5046917;28;20094;-56
2023/08/11 03:18:59;;;;;;;11.45;3.25;;;35.40;46.90;;;;;;5047035;28;20112;-55
2023/08/11 03:21:25;;;;;;;12.70;3.20;;;35.20;47.40;;;;;;5047321;28;20075;-55
2023/08/11 03:23:52;;;;;;;13.98;2.70;;;35.10;47.50;;;;;;5046943;28;20498;-56
2023/08/11 03:26:18;;;;;;;7.47;2.63;;;35.00;47.80;;;;;;5047470;28;20084;-55
2023/08/11 03:28:44;;;;;;;18.00;3.15;;;34.90;47.90;;;;;;5047146;28;20130;-56
2023/08/11 03:31:11;;;;;;;14.55;3.25;;;34.80;48.10;;;;;;5047133;28;20452;-54
2023/08/11 03:33:38;;;;;;;18.50;3.20;;;34.70;48.00;;;;;;5046604;28;20088;-54
2023/08/11 03:36:05;;;;;;;10.60;2.90;;;34.70;48.30;;;;;;5047121;28;20084;-57
2023/08/11 03:38:31;;;;;;;11.32;2.75;;;34.60;48.40;;;;;;5046698;28;20195;-58
2023/08/11 03:40:57;;;;;;;12.90;2.60;;;34.50;48.50;;;;;;5047794;28;20077;-59
2023/08/11 03:43:24;;;;;;;4.93;2.20;;;34.40;48.70;;;;;;5047439;28;20100;-59
2023/08/11 03:45:51;;;;;;;18.80;2.60;;;34.40;48.90;;;;;;5047120;28;20073;-57
2023/08/11 03:48:18;;;;;;;8.68;2.55;;;34.30;48.60;;;;;;5046532;28;20617;-55
2023/08/11 03:50:45;;;;;;;10.25;2.25;;;34.30;48.50;;;;;;5046870;28;20122;-55
2023/08/11 03:53:12;;;;;;;14.05;2.47;;;34.30;48.50;;;;;;5047011;28;20080;-55
2023/08/11 03:55:38;;;;;;;16.75;2.80;;;34.30;48.50;;;;;;5047263;28;20542;-56
2023/08/11 03:58:06;;;;;;;13.30;2.50;;;34.30;48.50;;;;;;5046931;28;20170;-58
2023/08/11 04:00:32;;;;;;;8.98;2.40;;;34.20;48.70;;;;;;5045570;28;20091;-58
2023/08/11 04:02:59;;;;;;;8.55;2.30;;;34.20;48.90;;;;;;5046400;28;20145;-58
2023/08/11 04:05:25;;;;;;;12.63;2.85;;;34.20;49.20;;;;;;5045199;28;20080;-57
2023/08/11 04:07:53;;;;;;;14.50;2.20;;;34.20;49.10;;;;;;5046390;28;20076;-56
2023/08/11 04:10:19;;;;;;;9.98;2.60;;;34.10;49.20;;;;;;5046718;28;20484;-58
2023/08/11 04:12:46;;;;;;;11.27;2.45;;;34.00;49.40;;;;;;5046457;28;20088;-59
2023/08/11 04:15:12;;;;;;;14.32;2.72;;;33.90;49.60;;;;;;5046336;28;20448;-56
2023/08/11 04:17:38;;;;;;;15.38;2.53;;;33.80;50.00;;;;;;5046948;28;20084;-56
2023/08/11 04:20:12;;;;;;;11.73;2.60;;;33.70;50.30;;;;;;5047844;28;20088;-57
2023/08/11 04:22:40;;;;;;;5.72;2.22;;;33.60;50.50;;;;;;5045743;28;20150;-55
2023/08/11 04:25:09;;;;;;;13.43;2.05;;;33.50;50.70;;;;;;5046887;28;20080;-56
2023/08/11 04:27:37;;;;;;;12.15;2.33;;;33.50;51.00;;;;;;5046364;28;20130;-53
2023/08/11 04:30:04;;;;;;;9.02;2.40;;;33.40;51.10;;;;;;5045897;28;20133;-55
2023/08/11 04:32:30;;;;;;;8.95;2.10;;;33.40;51.20;;;;;;5046474;28;20100;-56
2023/08/11 04:34:57;;;;;;;8.18;2.45;;;33.30;51.60;;;;;;5046884;28;20084;-53
2023/08/11 04:37:23;;;;;;;7.70;1.92;;;33.30;51.60;;;;;;5045977;28;20446;-55
2023/08/11 04:39:50;;;;;;;7.22;1.98;;;33.20;51.80;;;;;;5047494;28;20478;-54
2023/08/11 04:42:16;;;;;;;8.23;2.03;;;33.20;51.90;;;;;;5046869;28;20135;-55
2023/08/11 04:44:43;;;;;;;5.65;1.90;;;33.10;52.00;;;;;;5047315;28;20441;-54
2023/08/11 04:47:09;;;;;;;4.82;2.05;;;33.10;52.10;;;;;;5046495;28;20168;-56
2023/08/11 04:49:36;;;;;;;8.55;2.05;;;33.00;52.10;;;;;;5046541;28;20110;-55
2023/08/11 04:52:02;;;;;;;6.40;2.15;;;33.00;52.10;;;;;;5046506;28;20163;-55
2023/08/11 04:54:29;;;;;;;11.02;2.20;;;33.00;52.30;;;;;;5046780;28;20085;-58
2023/08/11 04:56:56;;;;;;;8.35;2.05;;;33.00;52.30;;;;;;5045353;28;20129;-53
2023/08/11 04:59:22;;;;;;;9.60;2.00;;;32.90;52.70;;;;;;5046724;28;20085;-58
2023/08/11 05:01:49;;;;;;;12.77;1.77;;;32.80;52.80;;;;;;5046104;28;20218;-55
2023/08/11 05:04:15;;;;;;;5.60;1.67;;;32.80;53.00;;;;;;5047496;28;20554;-56
2023/08/11 05:06:41;;;;;;;7.90;1.63;;;32.70;53.20;;;;;;5048406;28;20099;-56
2023/08/11 05:09:09;;;;;;;12.82;1.75;;;32.60;53.50;;;;;;5048336;28;20076;-57
2023/08/11 05:11:36;;;;;;;4.95;1.83;;;32.60;53.60;;;;;;5044582;28;20076;-55
2023/08/11 05:14:03;;;;;;;7.53;2.00;;;32.50;53.90;;;;;;5047550;28;20085;-56
2023/08/11 05:16:29;;;;;;;9.88;2.40;;;32.50;53.90;;;;;;5048671;28;20103;-59
2023/08/11 05:18:56;;;;;;;5.30;1.77;;;32.50;53.80;;;;;;5050189;28;20145;-53
2023/08/11 05:21:22;;;;;;;4.30;1.67;;;32.40;54.10;;;;;;5050382;28;20159;-54
2023/08/11 05:23:48;;;;;;;8.65;2.20;;;32.30;53.90;;;;;;5050179;28;20091;-54
2023/08/11 05:26:15;;;;;;;4.43;1.73;;;32.30;54.10;;;;;;5049302;28;20126;-57
2023/08/11 05:28:41;;;;;;;6.70;1.88;;;32.30;54.20;;;;;;5051841;28;20419;-59
2023/08/11 05:31:08;;;;;;;3.53;1.60;;;32.20;54.20;;;;;;5050858;28;20099;-54
2023/08/11 05:33:35;;;;;;;3.88;1.85;;;32.30;54.40;;;;;;5050728;28;20079;-58
2023/08/11 05:36:01;;;;;;;9.32;2.28;;;32.30;54.30;;;;;;5050393;28;20088;-59
2023/08/11 05:38:28;;;;;;;7.30;1.88;;;32.40;54.80;;;;;;5049598;28;20104;-57
2023/08/11 05:40:54;;;;;;;7.70;1.75;;;32.30;54.40;;;;;;5050675;28;20084;-57
2023/08/11 05:43:21;;;;;;;6.30;1.55;;;32.20;54.60;;;;;;5049927;28;20620;-55
2023/08/11 05:45:47;;;;;;;13.77;1.90;;;32.20;54.80;;;;;;5049005;28;20546;-57
2023/08/11 05:48:14;;;;;;;11.57;1.85;;;32.20;54.90;;;;;;5049874;28;20077;-55
2023/08/11 05:50:45;;;;;;;5.10;1.70;;;32.00;55.10;;;;;;5051064;28;20146;-56
2023/08/11 05:53:12;;;;;;;7.03;1.90;;;32.10;55.60;;;;;;5050567;28;20622;-58
2023/08/11 05:55:38;;;;;;;8.48;1.80;;;32.00;55.40;;;;;;5048406;28;20096;-54
2023/08/11 05:58:05;;;;;;;6.20;1.67;;;32.40;55.60;;;;;;5044407;28;20553;-54
2023/08/11 06:00:31;;;;;;;24.50;2.85;;;32.70;54.70;;;;;;5044693;28;20137;-56
2023/08/11 06:02:58;;;;;;;11.43;2.10;;;33.10;54.40;;;;;;5045800;28;20138;-53
2023/08/11 06:05:24;;;;;;;7.45;1.35;;;33.10;53.80;;;;;;5046890;28;20104;-59
2023/08/11 06:07:51;;;;;;;16.05;2.17;;;33.20;53.70;;;;;;5048275;28;20641;-53
2023/08/11 06:10:18;;;;;;;9.65;1.80;;;33.20;53.70;;;;;;5045799;28;20126;-56
2023/08/11 06:12:44;;;;;;;14.10;1.77;;;33.10;53.70;;;;;;5046254;28;20092;-51
2023/08/11 06:15:10;;;;;;;12.07;1.90;;;33.20;53.70;;;;;;5045236;28;20084;-55
2023/08/11 06:17:37;;;;;;;4.88;1.58;;;33.30;53.30;;;;;;5046458;28;20083;-59
2023/08/11 06:20:05;;;;;;;14.65;2.38;;;33.20;53.50;;;;;;5049047;28;20087;-56
2023/08/11 06:22:32;;;;;;;5.50;1.63;;;33.10;54.30;;;;;;5048085;28;20100;-56
2023/08/11 06:24:58;;;;;;;6.57;1.95;;;33.20;53.70;;;;;;5048534;28;20480;-53
2023/08/11 06:27:25;;;;;;;4.57;1.70;;;33.00;53.70;;;;;;5046281;28;20076;-54
2023/08/11 06:29:51;;;;;;;8.88;2.08;;;32.90;54.10;;;;;;5047852;28;20073;-55
2023/08/11 06:32:18;;;;;;;3.03;1.40;;;32.90;54.10;;;;;;5045934;28;20160;-54
2023/08/11 06:34:44;;;;;;;3.85;1.50;;;32.90;54.20;;;;;;5047897;28;20110;-55
2023/08/11 06:37:11;;;;;;;8.43;1.80;;;32.90;53.90;;;;;;5047568;28;20095;-55
2023/08/11 06:39:37;;;;;;;7.90;1.63;;;32.80;54.10;;;;;;5048725;28;20163;-51
2023/08/11 06:42:04;;;;;;;7.38;1.30;;;32.80;54.20;;;;;;5048429;28;20210;-52
2023/08/11 06:44:30;;;;;;;5.10;1.60;;;32.80;54.30;;;;;;5048554;28;20086;-56
2023/08/11 06:46:57;;;;;;;6.97;1.90;;;32.70;54.40;;;;;;5048022;28;20080;-55
2023/08/11 06:49:24;;;;;;;9.35;2.03;;;32.60;54.70;;;;;;5047860;28;20499;-53
2023/08/11 06:51:50;;;;;;;6.78;2.00;;;32.60;54.90;;;;;;5048230;28;20100;-53
2023/08/11 06:54:17;;;;;;;4.68;1.60;;;32.50;54.70;;;;;;5047811;28;20558;-53
2023/08/11 06:56:43;;;;;;;6.90;2.05;;;32.50;54.90;;;;;;5048077;28;20108;-52
2023/08/11 06:59:09;;;;;;;10.75;1.90;;;32.50;55.20;;;;;;5047961;28;20084;-52
2023/08/11 07:01:36;;;;;;;3.60;1.30;;;32.40;55.20;;;;;;5048048;28;20084;-53
2023/08/11 07:04:04;;;;;;;8.70;1.50;;;32.40;55.20;;;;;;5047699;28;20895;-53
2023/08/11 07:06:30;;;;;;;4.97;1.70;;;32.30;55.50;;;;;;5048086;28;20084;-53
2023/08/11 07:08:57;;;;;;;4.35;2.08;;;32.20;55.50;;;;;;5047580;28;20081;-54
2023/08/11 07:11:23;;;;;;;7.75;1.65;;;32.20;55.70;;;;;;5047764;28;20080;-55
2023/08/11 07:13:49;;;;;;;4.35;1.60;;;32.10;55.80;;;;;;5047865;28;20088;-54
2023/08/11 07:16:16;;;;;;;4.85;1.40;;;32.10;55.90;;;;;;5048152;28;20463;-52
2023/08/11 07:18:42;;;;;;;7.82;2.08;;;32.10;56.10;;;;;;5046949;28;20080;-54
2023/08/11 07:21:08;;;;;;;4.50;1.55;;;32.10;56.10;;;;;;5046709;28;20113;-52
2023/08/11 07:23:35;;;;;;;5.40;1.30;;;32.10;56.00;;;;;;5046818;28;20504;-50
2023/08/11 07:26:01;;;;;;;4.32;1.58;;;31.90;56.30;;;;;;5048359;28;20080;-52
2023/08/11 07:28:28;;;;;;;4.45;1.63;;;31.90;56.70;;;;;;5047258;28;20079;-53
2023/08/11 07:30:54;;;;;;;6.25;1.58;;;31.90;56.60;;;;;;5046903;28;20091;-54
2023/08/11 07:33:21;;;;;;;4.15;1.88;;;31.90;56.80;;;;;;5046863;28;20084;-53
2023/08/11 07:35:47;;;;;;;5.70;1.92;;;31.80;56.70;;;;;;5047221;28;20085;-53
2023/08/11 07:38:14;;;;;;;5.13;1.60;;;31.80;56.80;;;;;;5046355;28;20110;-54
2023/08/11 07:40:40;;;;;;;4.78;1.92;;;31.70;56.80;;;;;;5047706;28;20531;-56
2023/08/11 07:43:07;;;;;;;2.15;1.38;;;31.60;57.20;;;;;;5046352;28;20562;-54
2023/08/11 07:45:33;;;;;;;3.50;1.58;;;31.70;57.20;;;;;;5053047;28;20184;-49
2023/08/11 07:48:00;;;;;;;4.57;1.73;;;31.70;57.00;;;;;;5051202;28;20114;-50
2023/08/11 07:50:26;;;;;;;3.90;1.65;;;31.60;57.20;;;;;;5052961;28;20138;-49
2023/08/11 07:52:53;;;;;;;4.82;1.45;;;31.60;57.30;;;;;;5050816;28;20091;-50
2023/08/11 07:55:19;;;;;;;4.10;1.52;;;31.50;57.40;;;;;;5052052;28;20091;-51
2023/08/11 07:57:45;;;;;;;6.68;1.80;;;31.60;58.20;;;;;;5047457;28;20089;-54
2023/08/11 08:00:16;;;;;;;8.63;1.48;;;31.60;57.50;;;;;;5043738;28;20077;-53
2023/08/11 08:02:45;;;;;;;6.50;1.50;;;31.60;57.40;;;;;;5046716;28;20100;-56
2023/08/11 08:05:12;;;;;;;6.47;2.10;;;31.50;57.30;;;;;;5050852;28;20082;-53
2023/08/11 08:07:39;;;;;;;4.07;1.40;;;31.50;57.60;;;;;;5045385;28;20582;-53
2023/08/11 08:10:08;;;;;;;4.32;1.35;;;31.40;57.70;;;;;;5046911;28;20141;-55
2023/08/11 08:12:38;;;;;;;5.38;1.63;;;31.30;57.80;;;;;;5046709;28;20080;-52
2023/08/11 08:15:10;;;;;;;6.75;1.60;;;31.30;57.90;;;;;;5045875;28;20078;-54
2023/08/11 08:17:37;;;;;;;6.05;1.50;;;31.20;58.50;;;;;;5046418;28;20171;-54
2023/08/11 08:20:05;;;;;;;6.78;1.67;;;31.20;58.30;;;;;;5048233;28;20611;-56
2023/08/11 08:22:32;;;;;;;4.85;1.48;;;31.20;58.40;;;;;;5046309;28;20530;-56
2023/08/11 08:24:59;;;;;;;4.93;1.42;;;31.10;58.40;;;;;;5047268;28;20138;-55
2023/08/11 08:27:25;;;;;;;2.55;1.42;;;31.10;58.40;;;;;;5045666;28;20126;-54
2023/08/11 08:29:53;;;;;;;3.03;1.40;;;31.00;58.50;;;;;;5047087;28;20107;-57
2023/08/11 08:32:20;;;;;;;4.70;1.40;;;30.90;58.70;;;;;;5045601;28;20426;-53
2023/08/11 08:34:48;;;;;;;2.70;1.35;;;31.00;58.70;;;;;;5046780;28;20080;-56
2023/08/11 08:37:19;;;;;;;5.45;1.60;;;31.00;58.80;;;;;;5045652;28;20096;-52
2023/08/11 08:39:47;;;;;;;3.38;1.30;;;30.90;58.90;;;;;;5046682;28;20119;-51
2023/08/11 08:42:15;;;;;;;10.70;1.83;;;30.90;59.20;;;;;;5047018;28;20159;-53
2023/08/11 08:44:47;;;;;;;5.63;1.50;;;30.80;59.20;;;;;;5047601;28;20088;-55
2023/08/11 08:47:15;;;;;;;11.15;1.60;;;30.80;59.30;;;;;;5047333;28;20076;-53
2023/08/11 08:49:43;;;;;;;2.75;1.35;;;30.80;59.30;;;;;;5045157;28;20159;-54
2023/08/11 08:52:10;;;;;;;5.97;1.60;;;30.80;59.50;;;;;;5048354;28;20108;-57
2023/08/11 08:54:37;;;;;;;5.65;1.58;;;30.80;59.50;;;;;;5049377;28;20514;-54
2023/08/11 08:57:08;;;;;;;7.00;1.60;;;30.80;59.70;;;;;;5050844;28;20477;-50
2023/08/11 08:59:34;;;;;;;6.15;1.70;;;30.80;59.70;;;;;;5048775;28;20505;-57
2023/08/11 09:02:01;;;;;;;9.18;2.00;;;30.80;59.70;;;;;;5049646;28;20085;-52
2023/08/11 09:04:28;;;;;;;7.80;1.60;;;30.80;59.60;;;;;;5050151;28;20099;-56
2023/08/11 09:06:55;;;;;;;4.13;1.45;;;30.70;59.60;;;;;;5051602;28;20613;-52
2023/08/11 09:09:23;;;;;;;8.52;1.80;;;30.70;59.60;;;;;;5050434;28;20080;-55
2023/08/11 09:11:50;;;;;;;10.25;1.45;;;30.70;59.80;;;;;;5050982;28;20088;-57
2023/08/11 09:14:20;;;;;;;4.35;1.52;;;30.70;60.10;;;;;;5050573;28;20129;-56
2023/08/11 09:16:49;;;;;;;7.72;1.55;;;30.60;59.70;;;;;;5048998;28;20097;-55
2023/08/11 09:19:15;;;;;;;8.68;1.50;;;30.60;60.00;;;;;;5050242;28;20452;-55
2023/08/11 09:21:45;;;;;;;12.20;1.67;;;30.60;60.00;;;;;;5050237;28;20084;-58
2023/08/11 09:24:13;;;;;;;8.80;1.90;;;30.70;59.80;;;;;;5050306;28;20092;-57
2023/08/11 09:26:45;;;;;;;11.25;1.70;;;30.60;60.00;;;;;;5049973;28;20090;-53
2023/08/11 09:29:14;;;;;;;7.32;1.40;;;30.70;60.10;;;;;;5049281;28;20076;-54
2023/08/11 09:31:41;;;;;;;7.15;1.60;;;30.60;60.20;;;;;;5051271;28;20542;-55
2023/08/11 09:34:18;;;;;;;11.55;1.60;;;30.50;60.20;;;;;;5048922;28;20225;-57
2023/08/11 09:36:46;;;;;;;6.10;1.50;;;30.50;60.10;;;;;;5050176;28;20087;-54
2023/08/11 09:39:13;;;;;;;8.77;1.38;;;30.50;60.30;;;;;;5048944;28;20139;-54
2023/08/11 09:41:47;;;;;;;13.18;1.73;;;30.50;60.60;;;;;;5049407;28;20116;-53
2023/08/11 09:44:18;;;;;;;7.15;1.25;;;30.40;60.50;;;;;;5048496;28;20137;-53
2023/08/11 09:46:46;;;;;;;9.25;1.92;;;30.30;61.10;;;;;;5049713;28;20096;-55
2023/08/11 09:49:12;;;;;;;2.55;1.23;;;30.20;61.10;;;;;;5049335;28;20092;-57
2023/08/11 09:51:40;;;;;;;23.85;2.00;;;30.20;61.20;;;;;;5049270;28;20198;-53
2023/08/11 09:54:09;;;;;;;4.57;1.30;;;30.30;61.50;;;;;;5049597;28;20449;-54
2023/08/11 09:56:40;;;;;;;5.30;1.50;;;30.30;60.90;;;;;;5049736;28;20087;-56
2023/08/11 09:59:11;;;;;;;4.40;1.20;;;30.30;61.10;;;;;;5050559;28;20159;-53
2023/08/11 10:01:38;;;;;;;6.15;1.58;;;30.30;61.50;;;;;;5048696;28;20171;-54
2023/08/11 10:04:07;;;;;;;5.43;1.85;;;30.30;61.40;;;;;;5048811;28;20092;-56
2023/08/11 10:06:36;;;;;;;2.95;1.20;;;30.20;61.70;;;;;;5048247;28;20080;-54
2023/08/11 10:09:04;;;;;;;5.03;1.20;;;30.20;61.30;;;;;;5049282;28;20080;-53
2023/08/11 10:11:34;;;;;;;10.25;1.25;;;30.20;61.90;;;;;;5045331;28;20117;-55
2023/08/11 10:14:03;;;;;;;6.28;1.30;;;30.10;62.00;;;;;;5048835;28;21642;-52
2023/08/11 10:16:30;;;;;;;5.68;1.20;;;30.10;62.50;;;;;;5047432;28;21762;-59
2023/08/11 10:18:58;;;;;;;4.20;1.33;;;30.00;62.30;;;;;;5048938;28;20214;-55
2023/08/11 10:21:27;;;;;;;5.28;1.33;;;30.00;62.60;;;;;;5048333;28;20088;-56
2023/08/11 10:23:54;;;;;;;3.28;1.00;;;30.00;62.80;;;;;;5048576;28;20118;-53
2023/08/11 10:26:23;;;;;;;4.75;1.30;;;29.90;62.80;;;;;;5048960;28;20175;-55
2023/08/11 10:28:51;;;;;;;7.93;1.63;;;29.90;62.80;;;;;;5048685;28;20187;-55
2023/08/11 10:31:17;;;;;;;5.82;1.33;;;29.90;62.70;;;;;;5048802;28;20084;-57
2023/08/11 10:33:51;;;;;;;9.00;1.65;;;29.80;63.00;;;;;;5048089;28;20581;-55
2023/08/11 10:36:22;;;;;;;5.55;1.13;;;29.70;63.40;;;;;;5048869;28;20096;-56
2023/08/11 10:38:59;;;;;;;4.50;1.33;;;29.70;63.50;;;;;;5046186;28;20452;-56
2023/08/11 10:41:27;;;;;;;6.20;1.35;;;29.70;63.90;;;;;;5048823;28;20457;-51
2023/08/11 10:43:55;;;;;;;5.75;1.33;;;29.60;63.90;;;;;;5048078;28;20625;-52
2023/08/11 10:46:29;;;;;;;5.72;1.48;;;29.60;64.50;;;;;;5047772;28;20457;-54
2023/08/11 10:48:59;;;;;;;4.85;1.80;;;29.50;64.60;;;;;;5048192;28;20113;-54
2023/08/11 10:51:33;;;;;;;2.75;1.33;;;29.50;64.80;;;;;;5049325;28;20084;-52
2023/08/11 10:54:06;;;;;;;5.22;1.50;;;29.50;65.10;;;;;;5049280;28;20084;-52
2023/08/11 10:56:45;;;;;;;8.50;1.60;;;29.50;64.90;;;;;;5048019;28;20085;-53
2023/08/11 10:59:21;;;;;;;3.30;1.40;;;29.50;65.10;;;;;;5048577;28;20088;-57
2023/08/11 11:01:50;;;;;;;5.53;1.48;;;29.50;64.70;;;;;;5047746;28;20087;-50
2023/08/11 11:04:19;;;;;;;3.65;1.38;;;29.40;64.80;;;;;;5047651;28;20092;-56
2023/08/11 11:06:47;;;;;;;5.97;1.60;;;29.40;65.10;;;;;;5048250;28;20084;-54
2023/08/11 11:09:14;;;;;;;1.90;1.15;;;29.40;65.00;;;;;;5048021;28;20073;-55
2023/08/11 11:11:43;;;;;;;3.40;1.10;;;29.40;64.70;;;;;;5048314;28;20849;-55
2023/08/11 11:14:11;;;;;;;5.38;1.30;;;29.40;64.80;;;;;;5046145;28;20597;-56
2023/08/11 11:16:38;;;;;;;4.47;1.30;;;29.40;65.10;;;;;;5047376;28;20143;-57
2023/08/11 11:19:06;;;;;;;6.25;1.40;;;29.50;65.30;;;;;;5047262;28;20072;-52
2023/08/11 11:21:33;;;;;;;6.32;1.58;;;29.40;65.00;;;;;;5047625;28;20106;-53
2023/08/11 11:24:00;;;;;;;3.78;1.90;;;29.30;65.00;;;;;;5047598;28;20096;-55
2023/08/11 11:26:28;;;;;;;4.82;1.50;;;29.40;65.50;;;;;;5048221;28;20102;-51
2023/08/11 11:28:57;;;;;;;2.70;1.17;;;29.40;65.40;;;;;;5046533;28;20123;-55
2023/08/11 11:31:25;;;;;;;2.65;0.90;;;29.40;65.20;;;;;;5047396;28;20492;-53
2023/08/11 11:33:52;;;;;;;8.77;1.13;;;29.40;64.90;;;;;;5047638;28;20114;-53
2023/08/11 11:36:20;;;;;;;3.33;1.17;;;29.40;65.10;;;;;;5047741;28;20158;-53
2023/08/11 11:38:47;;;;;;;5.25;1.00;;;29.40;65.30;;;;;;5047345;28;20104;-55
2023/08/11 11:41:16;;;;;;;3.90;1.20;;;29.40;65.50;;;;;;5047358;28;20167;-49
2023/08/11 11:43:45;;;;;;;3.20;1.20;;;29.40;65.50;;;;;;5045851;28;20188;-59
2023/08/11 11:46:15;;;;;;;3.95;1.20;;;29.40;64.90;;;;;;5045423;28;20111;-51
2023/08/11 11:48:46;;;;;;;2.97;1.23;;;29.30;64.70;;;;;;5046328;28;20149;-53
2023/08/11 11:51:14;;;;;;;3.22;1.15;;;29.30;65.20;;;;;;5045735;28;20079;-52
2023/08/11 11:53:41;;;;;;;5.22;1.13;;;29.30;65.40;;;;;;5046879;28;21670;-56
2023/08/11 11:56:08;;;;;;;3.75;1.00;;;29.30;64.70;;;;;;5047408;28;20076;-51
2023/08/11 11:58:38;;;;;;;3.05;1.10;;;29.20;64.80;;;;;;5046521;28;20072;-53
2023/08/11 12:01:18;;;;;;;0.90;0.90;;;29.20;64.90;;;;;;5047044;28;20091;-55
2023/08/11 12:03:49;;;;;;;3.30;0.95;;;29.20;65.10;;;;;;5045943;28;20095;-53
2023/08/11 12:06:20;;;;;;;3.40;1.10;;;29.20;65.40;;;;;;5045753;28;20086;-55
2023/08/11 12:08:50;;;;;;;1.50;0.90;;;29.20;65.50;;;;;;5046254;28;20076;-50
2023/08/11 12:11:26;;;;;;;2.47;1.00;;;29.10;65.20;;;;;;5047517;28;20083;-55
2023/08/11 12:13:52;;;;;;;;;;;29.10;65.70;;;;;;5046507;28;20088;-55
2023/08/11 12:16:19;;;;;;;4.47;1.10;;;29.10;65.60;;;;;;5046493;28;19972;-54
2023/08/11 12:18:46;;;;;;;5.28;1.23;;;29.10;65.80;;;;;;5046458;28;20565;-53
2023/08/11 12:21:13;;;;;;;4.70;1.20;;;29.00;65.90;;;;;;5047404;28;20080;-55
2023/08/11 12:23:39;;;;;;;7.68;1.23;;;29.00;66.30;;;;;;5046319;28;20090;-56
2023/08/11 12:26:07;;;;;;;3.05;1.30;;;29.00;66.00;;;;;;5050972;28;20076;-50
2023/08/11 12:28:34;;;;;;;7.22;1.13;;;29.00;66.50;;;;;;5051395;28;20084;-58
2023/08/11 12:31:00;;;;;;;2.63;1.23;;;28.90;66.60;;;;;;5049910;28;20084;-51
2023/08/11 12:33:27;;;;;;;7.22;1.52;;;28.90;66.50;;;;;;5050761;28;20096;-53
2023/08/11 12:35:54;;;;;;;11.02;1.65;;;28.90;67.00;;;;;;5052026;28;20083;-54
2023/08/11 12:38:20;;;;;;;8.38;1.83;;;28.90;66.90;;;;;;5051830;28;21364;-55
2023/08/11 12:40:48;;;;;;;5.07;1.10;;;28.90;66.80;;;;;;5051231;28;20637;-54
2023/08/11 12:43:15;;;;;;;4.55;1.10;;;28.90;67.20;;;;;;5050380;28;20098;-54
2023/08/11 12:45:44;;;;;;;4.85;1.10;;;28.80;67.00;;;;;;5050952;28;20082;-58